Time;durP1;ratioP1;P1;durP2;ratioP2;P2;SDS_P1;SDS_P2;PMS_P1;PMS_P2;Temp;Humidity;BMP_temperature;BMP_pressure;BME280_temperature;BME280_humidity;BME280_pressure;Samples;Min_cycle;Max_cycle;Signal;HPM_P1;HPM_P2
2023/07/16 00:03:55;;;;;;;2.53;1.30;;;;;;;21.01;100.00;100454.53;20257818;29;20516;-65
2023/07/16 00:13:57;;;;;;;2.13;1.10;;;;;;;21.00;100.00;100461.78;20230773;29;20104;-65
2023/07/16 00:23:59;;;;;;;1.73;1.10;;;;;;;20.91;100.00;100438.44;20241642;29;20145;-65
2023/07/16 00:34:01;;;;;;;2.85;1.10;;;;;;;20.98;100.00;100447.59;20235493;29;20060;-65
2023/07/16 00:44:03;;;;;;;3.30;1.38;;;;;;;20.95;100.00;100456.03;20245851;29;20052;-64
2023/07/16 00:54:05;;;;;;;1.80;1.13;;;;;;;20.94;100.00;100451.63;20223125;29;20104;-65
2023/07/16 01:04:07;;;;;;;2.05;1.10;;;;;;;20.92;99.81;100445.56;20238474;29;20083;-65
2023/07/16 01:14:09;;;;;;;1.92;1.25;;;;;;;20.92;100.00;100431.16;20237261;29;20049;-65
2023/07/16 01:24:45;;;;;;;3.70;1.35;;;;;;;20.90;100.00;100444.88;20224304;29;20405;-65
2023/07/16 01:34:47;;;;;;;1.65;1.15;;;;;;;20.89;100.00;100450.44;20228187;29;20056;-65
2023/07/16 01:44:49;;;;;;;1.83;1.38;;;;;;;20.86;98.00;100452.47;20258171;29;20429;-65
2023/07/16 01:54:50;;;;;;;3.83;1.40;;;;;;;20.83;95.40;100455.50;20249697;29;20155;-65
2023/07/16 02:04:55;;;;;;;2.45;1.30;;;;;;;20.82;94.63;100451.13;20248215;29;20048;-65
2023/07/16 02:14:57;;;;;;;2.67;1.40;;;;;;;20.81;92.86;100445.88;20243067;29;20090;-65
2023/07/16 02:24:58;;;;;;;3.95;1.80;;;;;;;20.79;92.08;100450.63;20254445;29;20868;-65
2023/07/16 02:35:02;;;;;;;2.25;1.55;;;;;;;20.78;91.17;100438.06;20242960;29;20061;-65
2023/07/16 02:45:05;;;;;;;3.03;1.67;;;;;;;20.77;90.21;100439.06;20238755;29;20112;-65
2023/07/16 02:55:07;;;;;;;2.50;1.55;;;;;;;20.76;89.98;100449.03;20218225;29;20080;-65
2023/07/16 03:05:08;;;;;;;2.67;1.58;;;;;;;20.73;89.05;100452.09;20243281;29;20120;-65
2023/07/16 03:15:10;;;;;;;3.03;1.80;;;;;;;20.73;88.45;100458.31;20242584;29;20081;-65
2023/07/16 03:25:12;;;;;;;3.08;1.77;;;;;;;20.73;88.12;100460.19;20238060;29;20076;-65
2023/07/16 03:35:13;;;;;;;3.13;2.03;;;;;;;20.71;88.07;100463.06;20236395;29;20056;-65
2023/07/16 03:45:16;;;;;;;2.92;1.80;;;;;;;20.69;88.19;100470.50;20244106;29;20542;-65
2023/07/16 03:55:18;;;;;;;2.47;1.67;;;;;;;20.68;89.17;100476.09;20204926;29;20932;-65
2023/07/16 04:05:20;;;;;;;3.80;1.95;;;;;;;20.65;88.70;100490.78;20260137;29;20083;-65
2023/07/16 04:15:25;;;;;;;3.63;2.00;;;;;;;20.65;88.50;100500.75;20259567;29;20068;-65
2023/07/16 04:25:27;;;;;;;3.78;1.80;;;;;;;20.62;88.85;100485.69;20258490;29;20513;-65
2023/07/16 04:35:28;;;;;;;3.47;2.03;;;;;;;20.61;88.13;100502.94;20259204;29;20052;-65
2023/07/16 04:45:30;;;;;;;3.95;2.00;;;;;;;20.62;89.30;100518.16;20258725;29;20056;-65
2023/07/16 04:55:39;;;;;;;4.28;2.08;;;;;;;20.61;89.72;100502.09;20233082;29;20517;-65
2023/07/16 05:05:40;;;;;;;2.70;1.90;;;;;;;20.60;90.12;100517.47;20221460;29;20108;-65
2023/07/16 05:15:45;;;;;;;2.92;1.90;;;;;;;20.57;87.94;100540.28;20224929;29;20061;-65
2023/07/16 05:25:48;;;;;;;4.53;2.28;;;;;;;20.58;87.99;100539.28;20253043;29;20060;-66
2023/07/16 05:35:50;;;;;;;3.80;2.00;;;;;;;20.56;86.67;100537.72;20245666;29;20521;-65
2023/07/16 05:45:52;;;;;;;4.65;2.30;;;;;;;20.56;89.65;100552.13;20233582;29;20534;-65
2023/07/16 05:55:53;;;;;;;5.95;2.17;;;;;;;20.56;90.02;100568.34;20221165;29;20044;-65
2023/07/16 06:05:55;;;;;;;6.20;2.40;;;;;;;20.56;89.91;100575.59;20218952;29;20052;-65
2023/07/16 06:15:57;;;;;;;5.05;2.58;;;;;;;20.59;88.64;100580.69;20240440;29;20061;-65
2023/07/16 06:25:58;;;;;;;3.58;2.40;;;;;;;20.60;87.21;100576.97;20209186;29;20045;-64
2023/07/16 06:36:00;;;;;;;3.70;2.58;;;;;;;20.62;86.82;100591.16;20227743;29;20576;-64
2023/07/16 06:46:02;;;;;;;5.28;3.13;;;;;;;20.65;86.28;100604.38;20228352;29;20588;-64
2023/07/16 06:56:04;;;;;;;4.25;2.30;;;;;;;20.70;87.63;100620.94;20234478;29;20048;-64
2023/07/16 07:06:06;;;;;;;5.22;2.92;;;;;;;20.68;86.35;100617.56;20220209;29;20498;-65
2023/07/16 07:16:08;;;;;;;5.40;2.97;;;;;;;20.76;86.13;100624.03;20217275;29;20072;-63
2023/07/16 07:26:09;;;;;;;3.92;2.70;;;;;;;20.77;84.89;100617.59;20194442;29;20085;-64
2023/07/16 07:36:11;;;;;;;3.33;2.65;;;;;;;20.78;84.52;100619.31;20214151;29;20099;-64
2023/07/16 07:46:13;;;;;;;5.60;2.53;;;;;;;20.90;83.95;100641.53;20228313;29;20143;-65
2023/07/16 07:56:15;;;;;;;5.10;3.13;;;;;;;20.95;84.58;100650.00;20208247;29;20136;-64
2023/07/16 08:06:17;;;;;;;5.28;2.90;;;;;;;20.95;83.96;100656.28;20228194;29;20056;-64
2023/07/16 08:16:19;;;;;;;3.33;2.63;;;;;;;21.01;84.30;100666.44;20223453;29;20078;-64
2023/07/16 08:26:20;;;;;;;3.92;2.33;;;;;;;21.10;85.55;100677.31;20209825;29;20086;-64
2023/07/16 08:36:23;;;;;;;4.05;2.60;;;;;;;21.10;85.25;100705.25;20240930;29;20053;-64
2023/07/16 08:46:25;;;;;;;5.50;2.97;;;;;;;21.09;84.15;100700.84;20255838;29;20036;-64
2023/07/16 08:56:27;;;;;;;3.38;2.42;;;;;;;21.06;84.54;100703.88;20255005;29;20048;-64
2023/07/16 09:06:28;;;;;;;3.08;2.40;;;;;;;21.04;85.66;100718.56;20255613;29;20108;-64
2023/07/16 09:16:33;;;;;;;5.90;2.72;;;;;;;21.04;85.95;100723.97;20255511;29;20059;-64
2023/07/16 09:26:38;;;;;;;3.83;2.55;;;;;;;21.05;86.34;100737.34;20257646;29;20124;-64
2023/07/16 09:36:40;;;;;;;;;;;;;;;21.07;86.45;100745.28;20258259;29;20060;-64
2023/07/16 09:46:42;;;;;;;3.30;2.65;;;;;;;20.95;85.04;100758.25;20257333;29;19958;-64
2023/07/16 09:56:45;;;;;;;4.28;3.35;;;;;;;21.00;85.41;100778.41;20257829;29;20581;-64
2023/07/16 10:07:00;;;;;;;5.37;3.40;;;;;;;21.00;83.94;100805.47;20269290;29;20120;-64
2023/07/16 10:17:02;;;;;;;3.85;2.28;;;;;;;21.02;85.66;100797.22;20270142;29;20470;-64
2023/07/16 10:27:04;;;;;;;3.80;2.70;;;;;;;21.01;83.73;100809.88;20268095;29;20505;-64
2023/07/16 10:37:06;;;;;;;4.75;2.67;;;;;;;21.00;83.98;100810.91;20267623;29;20501;-64
2023/07/16 10:47:09;;;;;;;3.97;3.05;;;;;;;20.97;81.98;100835.56;20267416;29;20132;-64
2023/07/16 10:57:11;;;;;;;4.65;3.30;;;;;;;20.95;82.56;100848.41;20266882;29;20089;-64
2023/07/16 11:07:14;;;;;;;3.60;3.00;;;;;;;20.89;81.79;100842.78;20266230;29;20565;-64
2023/07/16 11:17:16;;;;;;;4.43;3.03;;;;;;;20.94;82.66;100849.44;20264778;29;20450;-64
2023/07/16 11:27:26;;;;;;;3.50;3.00;;;;;;;20.98;82.49;100860.75;20265123;29;20124;-64
2023/07/16 11:37:29;;;;;;;4.80;3.30;;;;;;;21.00;82.12;100864.19;20264309;29;20179;-64
2023/07/16 11:47:31;;;;;;;3.85;2.70;;;;;;;20.98;80.55;100875.16;20261242;29;20045;-64
2023/07/16 11:57:34;;;;;;;4.22;2.92;;;;;;;20.90;79.60;100879.66;20262193;29;20060;-64
2023/07/16 12:07:36;;;;;;;4.65;3.08;;;;;;;20.96;79.07;100890.72;20261461;29;20056;-64
2023/07/16 12:17:38;;;;;;;3.53;2.70;;;;;;;20.97;79.21;100897.81;20261103;29;20110;-64
2023/07/16 12:27:40;;;;;;;4.15;2.63;;;;;;;20.97;78.75;100903.22;20260627;29;20053;-64
2023/07/16 12:37:41;;;;;;;5.03;3.17;;;;;;;20.97;78.79;100915.91;20259691;29;20048;-64
2023/07/16 12:47:43;;;;;;;5.40;3.28;;;;;;;20.97;78.87;100932.13;20259244;29;20136;-64
2023/07/16 12:57:45;;;;;;;4.25;2.60;;;;;;;20.97;78.53;100918.59;20258568;29;20112;-64
2023/07/16 13:07:46;;;;;;;4.05;2.97;;;;;;;20.99;78.09;100930.13;20258656;29;20057;-64
2023/07/16 13:17:48;;;;;;;3.88;2.67;;;;;;;20.99;78.70;100930.13;20257836;29;20052;-64
2023/07/16 13:27:50;;;;;;;3.75;2.38;;;;;;;20.97;78.93;100945.66;20258336;29;20132;-64
2023/07/16 13:37:51;;;;;;;4.50;2.67;;;;;;;21.01;79.47;100955.19;20267971;29;20044;-64
2023/07/16 13:47:55;;;;;;;2.65;2.15;;;;;;;21.04;81.44;100954.03;20271954;29;20044;-64
2023/07/16 13:57:56;;;;;;;3.67;2.55;;;;;;;21.03;80.51;100965.84;20271500;29;20059;-64
2023/07/16 14:07:58;;;;;;;3.83;2.60;;;;;;;21.04;80.61;100962.16;20269690;29;20067;-64
2023/07/16 14:18:00;;;;;;;2.42;2.22;;;;;;;21.02;79.75;100970.44;20268443;29;20055;-64
2023/07/16 14:28:01;;;;;;;3.30;2.08;;;;;;;21.01;80.18;100974.97;20267457;29;20165;-64
2023/07/16 14:38:03;;;;;;;3.30;2.30;;;;;;;20.99;79.77;100971.59;20268310;29;20053;-64
2023/07/16 14:48:05;;;;;;;2.80;2.00;;;;;;;21.00;80.03;100972.44;20265286;29;20045;-64
2023/07/16 14:58:07;;;;;;;2.95;1.92;;;;;;;20.99;80.17;100977.00;20266133;29;20533;-64
2023/07/16 15:08:09;;;;;;;3.67;2.17;;;;;;;20.94;80.36;100973.91;20266368;29;20044;-64
2023/07/16 15:18:11;;;;;;;2.42;1.98;;;;;;;20.98;81.40;100982.56;20265543;29;20143;-64
2023/07/16 15:28:13;;;;;;;4.05;2.30;;;;;;;20.98;80.20;100988.81;20263943;29;20060;-64
2023/07/16 15:38:15;;;;;;;2.08;1.75;;;;;;;20.96;79.33;100996.25;20264139;29;20080;-64
2023/07/16 15:48:17;;;;;;;2.22;1.70;;;;;;;20.96;81.21;101017.03;20263012;29;20131;-64
2023/07/16 15:58:19;;;;;;;4.40;2.40;;;;;;;20.94;81.69;101014.50;20262951;29;20085;-64
2023/07/16 16:08:22;;;;;;;2.30;1.70;;;;;;;20.72;80.98;100965.19;20261911;29;20056;-64
2023/07/16 16:18:25;;;;;;;3.88;1.75;;;;;;;20.93;81.15;101004.69;20260800;29;20074;-64
2023/07/16 16:28:26;;;;;;;2.58;1.80;;;;;;;20.91;80.95;100993.16;20260503;29;20131;-64
2023/07/16 16:38:28;;;;;;;2.30;1.35;;;;;;;20.92;81.86;100985.88;20260175;29;20747;-64
2023/07/16 16:48:30;;;;;;;3.08;1.60;;;;;;;20.91;81.04;100997.72;20260328;29;20049;-64
2023/07/16 16:58:32;;;;;;;3.38;1.67;;;;;;;20.91;80.71;101027.47;20236494;29;20048;-64
2023/07/16 17:08:34;;;;;;;2.55;1.60;;;;;;;20.91;80.96;101027.47;20217098;29;20037;-64
2023/07/16 17:18:35;;;;;;;3.05;1.60;;;;;;;20.88;81.00;101039.47;20259564;29;20501;-64
2023/07/16 17:28:37;;;;;;;3.90;1.73;;;;;;;20.87;80.98;101059.41;20244006;29;20119;-64
2023/07/16 17:38:39;;;;;;;3.25;1.55;;;;;;;20.86;80.52;101042.31;20242459;29;20048;-64
2023/07/16 17:48:40;;;;;;;3.60;1.55;;;;;;;20.87;80.80;101045.91;20249651;29;20144;-64
2023/07/16 17:58:42;;;;;;;2.72;1.55;;;;;;;20.84;80.68;101046.19;20267339;29;20576;-64
2023/07/16 18:08:45;;;;;;;2.15;1.17;;;;;;;20.84;81.30;101054.31;20269916;29;20091;-64
2023/07/16 18:18:47;;;;;;;3.45;1.40;;;;;;;20.83;81.84;101069.69;20270267;29;20474;-64
2023/07/16 18:28:49;;;;;;;4.05;1.73;;;;;;;20.82;82.01;101062.56;20269356;29;20048;-64
2023/07/16 18:38:50;;;;;;;3.05;1.30;;;;;;;20.79;82.60;101072.88;20268692;29;20433;-64
2023/07/16 18:48:52;;;;;;;3.50;1.30;;;;;;;20.80;81.88;101075.41;20268030;29;20055;-64
2023/07/16 18:58:54;;;;;;;3.20;1.80;;;;;;;20.81;83.21;101081.69;20267196;29;20057;-64
2023/07/16 19:08:55;;;;;;;4.65;1.40;;;;;;;20.78;82.58;101080.09;20266383;29;20067;-64
2023/07/16 19:18:57;;;;;;;2.80;1.20;;;;;;;20.79;83.32;101086.41;20265603;29;20089;-64
2023/07/16 19:28:59;;;;;;;4.30;1.20;;;;;;;20.77;84.03;101082.91;20264755;29;20091;-64
2023/07/16 19:39:00;;;;;;;2.03;1.13;;;;;;;20.76;84.11;101089.34;20264203;29;20525;-64
2023/07/16 19:49:02;;;;;;;4.00;1.17;;;;;;;20.75;84.88;101102.03;20263822;29;20059;-64
2023/07/16 19:59:04;;;;;;;2.00;1.00;;;;;;;20.75;85.69;101103.88;20262341;29;20123;-64
2023/07/16 20:09:05;;;;;;;3.08;1.23;;;;;;;20.72;85.75;101116.69;20261463;29;20091;-64
2023/07/16 20:19:07;;;;;;;2.85;1.38;;;;;;;20.71;85.99;101117.69;20261124;29;20060;-64
2023/07/16 20:29:09;;;;;;;3.28;1.40;;;;;;;20.70;86.56;101118.69;20260641;29;20044;-64
2023/07/16 20:39:11;;;;;;;2.28;1.10;;;;;;;20.70;87.53;101117.88;20258904;29;20052;-64
2023/07/16 20:49:13;;;;;;;2.30;1.27;;;;;;;20.68;86.87;101115.28;20258783;29;20453;-64
2023/07/16 20:59:15;;;;;;;2.78;1.30;;;;;;;20.67;87.24;101120.88;20257546;29;20057;-64
2023/07/16 21:09:16;;;;;;;2.72;1.30;;;;;;;20.66;87.51;101114.59;20236021;29;20469;-64
2023/07/16 21:19:18;;;;;;;2.80;1.00;;;;;;;20.66;88.26;101108.34;20241234;29;20059;-64
2023/07/16 21:29:20;;;;;;;4.40;1.63;;;;;;;20.65;88.80;101114.75;20236302;29;20071;-64
2023/07/16 21:39:21;;;;;;;1.80;1.10;;;;;;;20.65;89.68;101106.66;20244281;29;20124;-64
2023/07/16 21:49:23;;;;;;;3.20;1.42;;;;;;;20.64;90.09;101110.34;20234210;29;20049;-64
2023/07/16 21:59:25;;;;;;;2.05;1.20;;;;;;;20.64;89.58;101113.06;20255297;29;20049;-64
2023/07/16 22:09:27;;;;;;;2.85;1.27;;;;;;;20.61;88.55;101097.97;20270187;29;20057;-64
2023/07/16 22:19:28;;;;;;;2.90;1.50;;;;;;;20.59;88.04;101099.97;20239654;29;20072;-64
2023/07/16 22:29:33;;;;;;;2.60;1.10;;;;;;;20.58;87.49;101082.91;20246014;29;20064;-64
2023/07/16 22:39:35;;;;;;;2.53;1.27;;;;;;;20.59;87.25;101083.75;20249594;29;20083;-64
2023/07/16 22:49:36;;;;;;;2.42;0.90;;;;;;;20.58;87.32;101082.91;20238668;29;20052;-64
2023/07/16 22:59:38;;;;;;;2.05;1.25;;;;;;;20.58;86.70;101098.25;20243203;29;20083;-64
2023/07/16 23:09:40;;;;;;;2.13;1.30;;;;;;;20.58;86.56;101092.84;20238705;29;20053;-64
2023/07/16 23:19:41;;;;;;;2.67;1.23;;;;;;;20.57;86.12;101096.56;20236501;29;20806;-64
2023/07/16 23:29:43;;;;;;;2.70;1.27;;;;;;;20.56;85.71;101100.28;20250564;29;20056;-64
2023/07/16 23:39:45;;;;;;;2.08;1.40;;;;;;;20.55;85.43;101101.28;20244537;29;20103;-64
2023/07/16 23:49:47;;;;;;;2.80;1.40;;;;;;;20.55;85.08;101112.09;20243666;29;20131;-64
2023/07/16 23:59:48;;;;;;;1.30;1.20;;;;;;;20.55;84.70;101109.38;20240857;29;20057;-64
